Time;durP1;ratioP1;P1;durP2;ratioP2;P2;SDS_P1;SDS_P2;PMS_P1;PMS_P2;Temp;Humidity;BMP_temperature;BMP_pressure;BME280_temperature;BME280_humidity;BME280_pressure;Samples;Min_cycle;Max_cycle;Signal;HPM_P1;HPM_P2
2023/05/23 00:01:58;;;;;;;13.77;8.70;;;15.80;99.90;;;;;;5005150;28;20549;-79
2023/05/23 00:04:26;;;;;;;11.77;8.60;;;15.90;99.90;;;;;;5014424;28;20038;-79
2023/05/23 00:07:01;;;;;;;14.48;8.82;;;15.80;99.90;;;;;;5018185;28;20116;-79
2023/05/23 00:09:27;;;;;;;11.77;8.57;;;15.80;99.90;;;;;;5005123;28;20037;-80
2023/05/23 00:12:25;;;;;;;12.30;8.63;;;15.80;99.90;;;;;;5013518;28;20066;-78
2023/05/23 00:15:02;;;;;;;;;;;15.70;99.90;;;;;;5015222;28;20033;-80
2023/05/23 00:17:41;;;;;;;10.65;8.90;;;15.70;99.90;;;;;;5010088;28;19985;-78
2023/05/23 00:20:33;;;;;;;13.77;8.70;;;15.60;99.90;;;;;;5009926;28;20033;-80
2023/05/23 00:23:02;;;;;;;12.88;8.52;;;15.70;99.90;;;;;;5009806;28;20033;-79
2023/05/23 00:25:36;;;;;;;11.18;8.35;;;15.70;99.90;;;;;;5015535;28;20050;-79
2023/05/23 00:28:12;;;;;;;13.38;8.88;;;15.70;99.90;;;;;;5015647;28;20022;-79
2023/05/23 00:30:37;;;;;;;10.57;8.20;;;15.70;99.90;;;;;;5011483;28;20040;-79
2023/05/23 00:33:08;;;;;;;13.00;8.45;;;15.80;99.90;;;;;;5011839;28;20097;-78
2023/05/23 00:35:55;;;;;;;;;;;;;;;;;;;;;
2023/05/23 00:38:34;;;;;;;12.93;8.13;;;15.70;99.90;;;;;;5004834;28;20121;-77
2023/05/23 00:41:19;;;;;;;13.13;8.45;;;15.70;99.90;;;;;;5004027;28;20078;-78
2023/05/23 00:44:23;;;;;;;15.05;8.57;;;15.70;99.90;;;;;;5015019;28;20038;-80
2023/05/23 00:47:02;;;;;;;13.82;8.70;;;15.70;99.90;;;;;;5006908;28;20042;-78
2023/05/23 00:49:32;;;;;;;11.73;8.88;;;15.70;99.90;;;;;;5012587;28;20037;-78
2023/05/23 00:52:06;;;;;;;13.93;8.88;;;15.60;99.90;;;;;;5015159;28;20037;-78
2023/05/23 00:54:44;;;;;;;13.45;8.90;;;15.60;99.90;;;;;;5008373;28;20694;-78
2023/05/23 00:57:16;;;;;;;13.15;7.97;;;15.60;99.90;;;;;;5016868;28;20502;-79
2023/05/23 00:59:47;;;;;;;13.13;8.27;;;15.60;99.90;;;;;;5009369;28;20037;-79
2023/05/23 01:02:13;;;;;;;11.85;8.38;;;15.60;99.90;;;;;;5048020;22;20046;-32
2023/05/23 01:04:39;;;;;;;12.00;7.88;;;15.50;99.90;;;;;;5002237;28;20030;-31
2023/05/23 01:07:05;;;;;;;9.93;7.82;;;15.50;99.90;;;;;;5000938;28;20080;-30
2023/05/23 01:09:31;;;;;;;13.18;9.18;;;15.50;99.90;;;;;;4997393;28;20022;-33
2023/05/23 01:12:08;;;;;;;12.85;8.55;;;15.40;99.90;;;;;;5006252;28;20464;-31
2023/05/23 01:15:11;;;;;;;13.03;8.90;;;15.30;99.90;;;;;;5003854;28;20104;-31
2023/05/23 01:18:03;;;;;;;11.93;7.90;;;15.10;99.90;;;;;;4992893;28;20034;-31
2023/05/23 01:20:35;;;;;;;11.82;7.68;;;15.10;99.90;;;;;;5003448;28;20525;-31
2023/05/23 01:23:36;;;;;;;10.52;7.63;;;14.90;99.90;;;;;;5004570;28;20092;-31
2023/05/23 01:26:25;;;;;;;13.40;8.02;;;14.90;99.90;;;;;;4966571;28;20068;-31
2023/05/23 01:28:57;;;;;;;13.10;8.70;;;15.00;99.90;;;;;;5001054;28;20524;-31
2023/05/23 01:31:26;;;;;;;13.45;8.98;;;15.00;99.90;;;;;;5002531;28;20521;-30
2023/05/23 01:33:53;;;;;;;12.38;8.40;;;15.10;99.90;;;;;;5001030;28;20078;-31
2023/05/23 01:36:19;;;;;;;12.98;8.63;;;15.00;99.90;;;;;;5000362;28;20022;-29
2023/05/23 01:38:45;;;;;;;10.50;7.60;;;14.80;99.90;;;;;;5006090;28;20022;-31
2023/05/23 01:41:11;;;;;;;10.20;7.93;;;14.70;99.90;;;;;;5002273;28;20026;-30
2023/05/23 01:43:37;;;;;;;10.30;7.95;;;14.60;99.90;;;;;;5000325;28;20668;-31
2023/05/23 01:46:06;;;;;;;14.20;8.43;;;14.40;99.90;;;;;;5002611;28;20377;-31
2023/05/23 01:48:33;;;;;;;15.02;8.45;;;14.30;99.90;;;;;;5010003;28;20032;-30
2023/05/23 01:51:00;;;;;;;12.73;8.40;;;14.30;99.90;;;;;;5004987;28;20018;-31
2023/05/23 01:53:29;;;;;;;12.07;7.88;;;14.10;99.90;;;;;;5000449;28;20064;-31
2023/05/23 01:55:55;;;;;;;13.18;7.80;;;13.90;99.90;;;;;;5002733;28;21252;-30
2023/05/23 01:58:20;;;;;;;12.38;8.80;;;13.90;99.90;;;;;;5005740;28;20030;-30
2023/05/23 02:00:46;;;;;;;13.63;8.65;;;14.00;99.90;;;;;;5002598;28;20026;-30
2023/05/23 02:03:12;;;;;;;13.63;8.25;;;14.00;99.90;;;;;;5001627;28;20049;-31
2023/05/23 02:05:38;;;;;;;14.13;8.45;;;14.00;99.90;;;;;;4999482;28;20026;-31
2023/05/23 02:08:04;;;;;;;11.27;7.82;;;14.00;99.90;;;;;;5005704;28;20488;-30
2023/05/23 02:10:30;;;;;;;10.27;7.63;;;14.00;99.90;;;;;;5003135;28;20061;-30
2023/05/23 02:12:56;;;;;;;13.50;8.07;;;14.10;99.90;;;;;;5006605;28;20462;-30
2023/05/23 02:15:22;;;;;;;14.77;9.65;;;14.10;99.90;;;;;;4996381;28;20038;-30
2023/05/23 02:17:48;;;;;;;13.45;8.52;;;14.10;99.90;;;;;;5005677;28;20487;-29
2023/05/23 02:20:14;;;;;;;14.25;9.30;;;14.20;99.90;;;;;;5005911;28;20042;-30
2023/05/23 02:22:40;;;;;;;15.30;9.45;;;14.30;99.90;;;;;;5006104;28;20124;-30
2023/05/23 02:25:06;;;;;;;14.20;9.43;;;14.30;99.90;;;;;;5005112;28;20517;-29
2023/05/23 02:27:32;;;;;;;16.42;9.02;;;14.30;99.90;;;;;;4997717;28;20391;-30
2023/05/23 02:29:58;;;;;;;14.50;9.23;;;14.30;99.90;;;;;;5005876;28;20031;-29
2023/05/23 02:32:23;;;;;;;16.25;10.75;;;14.30;99.90;;;;;;5005540;28;20030;-29
2023/05/23 02:34:49;;;;;;;13.75;9.20;;;14.30;99.90;;;;;;5003908;28;20029;-30
2023/05/23 02:37:15;;;;;;;14.93;10.27;;;14.30;99.90;;;;;;5003714;28;20045;-30
2023/05/23 02:39:42;;;;;;;15.80;10.52;;;14.30;99.90;;;;;;5001445;28;20051;-30
2023/05/23 02:42:08;;;;;;;14.35;9.82;;;14.30;99.90;;;;;;5006880;28;20553;-30
2023/05/23 02:44:34;;;;;;;18.20;10.00;;;14.30;99.90;;;;;;4998259;28;20037;-30
2023/05/23 02:47:00;;;;;;;16.30;10.13;;;14.40;99.90;;;;;;4997373;28;20447;-29
2023/05/23 02:49:26;;;;;;;15.82;10.05;;;14.40;99.90;;;;;;5002844;28;20025;-29
2023/05/23 02:51:52;;;;;;;15.50;10.52;;;14.40;99.90;;;;;;5002193;28;20568;-30
2023/05/23 02:54:18;;;;;;;15.52;10.38;;;14.30;99.90;;;;;;5001766;28;20080;-30
2023/05/23 02:56:45;;;;;;;16.73;9.93;;;14.30;99.90;;;;;;5005292;28;20128;-30
2023/05/23 02:59:11;;;;;;;16.48;10.70;;;14.30;99.90;;;;;;5005708;28;20030;-30
2023/05/23 03:01:37;;;;;;;15.23;9.90;;;14.30;99.90;;;;;;5004432;28;20132;-30
2023/05/23 03:04:03;;;;;;;17.25;10.90;;;14.20;99.90;;;;;;5001132;28;20527;-31
2023/05/23 03:06:32;;;;;;;16.35;11.05;;;14.30;99.90;;;;;;5005147;28;20029;-30
2023/05/23 03:08:59;;;;;;;16.88;10.95;;;14.30;99.90;;;;;;4998899;28;20545;-31
2023/05/23 03:11:26;;;;;;;14.33;9.87;;;14.30;99.90;;;;;;5003094;28;20026;-30
2023/05/23 03:13:52;;;;;;;16.55;9.60;;;14.30;99.90;;;;;;5005440;28;20030;-29
2023/05/23 03:16:17;;;;;;;15.70;10.05;;;14.30;99.90;;;;;;5001833;28;20083;-29
2023/05/23 03:18:43;;;;;;;16.80;10.23;;;14.30;99.90;;;;;;5004599;28;20090;-30
2023/05/23 03:21:09;;;;;;;16.10;10.73;;;14.30;99.90;;;;;;4996301;28;20045;-31
2023/05/23 03:23:35;;;;;;;17.67;12.23;;;14.30;99.90;;;;;;5002785;28;20077;-30
2023/05/23 03:26:02;;;;;;;17.33;10.80;;;14.30;99.90;;;;;;5007077;28;20048;-29
2023/05/23 03:28:30;;;;;;;19.20;10.90;;;14.20;99.90;;;;;;5002527;28;20656;-29
2023/05/23 03:30:57;;;;;;;17.50;11.30;;;14.10;99.90;;;;;;4995185;28;20053;-29
2023/05/23 03:33:23;;;;;;;20.35;11.40;;;14.10;99.90;;;;;;4997978;28;20100;-30
2023/05/23 03:35:50;;;;;;;16.38;10.18;;;14.20;99.90;;;;;;5003732;28;20225;-30
2023/05/23 03:38:16;;;;;;;18.42;11.65;;;14.20;99.90;;;;;;5001990;28;20164;-30
2023/05/23 03:40:42;;;;;;;18.58;11.82;;;14.20;99.90;;;;;;5000500;28;20025;-30
2023/05/23 03:43:08;;;;;;;17.35;11.68;;;14.20;99.90;;;;;;5003237;28;20080;-30
2023/05/23 03:45:34;;;;;;;16.60;10.68;;;14.10;99.90;;;;;;4994335;28;20177;-30
2023/05/23 03:48:00;;;;;;;22.85;12.02;;;14.10;99.90;;;;;;5006154;28;20017;-30
2023/05/23 03:50:26;;;;;;;19.55;10.68;;;14.00;99.90;;;;;;5007323;28;20143;-31
2023/05/23 03:52:53;;;;;;;17.13;11.35;;;14.00;99.90;;;;;;4999063;28;20125;-30
2023/05/23 03:55:23;;;;;;;19.58;11.48;;;14.00;99.90;;;;;;5004811;28;20081;-31
2023/05/23 03:57:52;;;;;;;21.75;11.20;;;14.00;99.90;;;;;;4998749;28;20022;-30
2023/05/23 04:00:18;;;;;;;19.83;11.68;;;14.00;99.90;;;;;;5002289;28;20030;-30
2023/05/23 04:02:45;;;;;;;20.60;13.25;;;14.00;99.90;;;;;;4996742;28;20046;-29
2023/05/23 04:05:12;;;;;;;20.10;12.50;;;14.00;99.90;;;;;;4999080;28;20124;-30
2023/05/23 04:07:39;;;;;;;22.35;12.02;;;14.10;99.90;;;;;;4996706;28;20033;-29
2023/05/23 04:10:05;;;;;;;22.27;12.45;;;14.20;99.90;;;;;;4984775;28;20034;-31
2023/05/23 04:12:31;;;;;;;23.63;12.35;;;14.20;99.90;;;;;;5002201;28;20057;-29
2023/05/23 04:14:57;;;;;;;21.45;12.13;;;14.30;99.90;;;;;;4999235;28;20040;-29
2023/05/23 04:17:24;;;;;;;21.45;12.90;;;14.30;99.90;;;;;;5004764;28;20045;-31
2023/05/23 04:19:51;;;;;;;23.85;13.27;;;14.30;99.90;;;;;;4999199;28;20029;-30
2023/05/23 04:22:17;;;;;;;24.27;13.15;;;14.40;99.90;;;;;;5002705;28;20044;-30
2023/05/23 04:24:43;;;;;;;24.00;12.85;;;14.40;99.90;;;;;;4994158;28;20058;-31
2023/05/23 04:27:09;;;;;;;24.77;13.80;;;14.40;99.90;;;;;;5002552;28;20065;-31
2023/05/23 04:29:35;;;;;;;22.77;13.35;;;14.50;99.90;;;;;;4997537;28;20032;-30
2023/05/23 04:32:05;;;;;;;22.88;13.77;;;14.50;99.90;;;;;;5001738;28;20035;-32
2023/05/23 04:34:34;;;;;;;22.65;14.05;;;14.50;99.90;;;;;;5003349;28;20133;-30
2023/05/23 04:37:03;;;;;;;21.95;13.48;;;14.60;99.90;;;;;;4999205;28;20027;-30
2023/05/23 04:39:29;;;;;;;22.10;12.93;;;14.60;99.90;;;;;;5014051;28;20025;-30
2023/05/23 04:41:55;;;;;;;24.08;14.00;;;14.60;99.90;;;;;;5000426;28;20486;-30
2023/05/23 04:44:22;;;;;;;22.42;14.20;;;14.70;99.90;;;;;;5000444;28;20060;-30
2023/05/23 04:46:49;;;;;;;27.50;15.13;;;14.80;99.90;;;;;;5002233;28;20383;-30
2023/05/23 04:49:15;;;;;;;22.10;14.02;;;14.80;99.90;;;;;;4989486;28;20038;-31
2023/05/23 04:51:41;;;;;;;22.73;13.90;;;14.90;99.90;;;;;;4999031;28;20069;-30
2023/05/23 04:54:07;;;;;;;25.13;14.88;;;15.00;99.90;;;;;;4997309;28;20112;-30
2023/05/23 04:56:33;;;;;;;27.00;15.07;;;15.00;99.90;;;;;;5001935;28;20129;-29
2023/05/23 04:58:59;;;;;;;26.05;15.18;;;15.10;99.90;;;;;;5003361;28;20038;-32
2023/05/23 05:01:25;;;;;;;24.15;14.38;;;15.30;99.90;;;;;;5002713;28;20046;-31
2023/05/23 05:03:51;;;;;;;27.27;14.93;;;15.30;99.90;;;;;;4995978;28;20033;-30
2023/05/23 05:06:17;;;;;;;23.77;13.60;;;15.30;99.90;;;;;;5005278;28;20037;-30
2023/05/23 05:08:43;;;;;;;26.92;15.88;;;15.30;99.90;;;;;;4997291;28;20687;-31
2023/05/23 05:11:12;;;;;;;25.23;14.70;;;15.40;99.90;;;;;;5008301;28;20030;-31
2023/05/23 05:13:40;;;;;;;27.20;14.68;;;15.40;99.90;;;;;;5015548;28;20388;-31
2023/05/23 05:16:06;;;;;;;28.77;15.27;;;15.40;99.90;;;;;;5002220;28;20026;-31
2023/05/23 05:18:32;;;;;;;27.55;14.18;;;15.40;99.90;;;;;;5002427;28;20484;-31
2023/05/23 05:20:58;;;;;;;27.88;15.15;;;15.50;99.90;;;;;;4995278;28;20030;-30
2023/05/23 05:23:27;;;;;;;30.73;15.63;;;15.50;99.90;;;;;;5009619;28;20076;-30
2023/05/23 05:25:55;;;;;;;27.75;15.57;;;15.60;99.90;;;;;;5006589;28;20061;-29
2023/05/23 05:28:21;;;;;;;30.23;16.10;;;15.70;99.90;;;;;;4997805;28;20037;-31
2023/05/23 05:30:47;;;;;;;27.33;16.10;;;15.80;99.90;;;;;;5001017;28;21519;-30
2023/05/23 05:33:13;;;;;;;30.27;21.60;;;15.90;99.90;;;;;;5002175;28;20233;-31
2023/05/23 05:35:38;;;;;;;28.52;17.08;;;16.00;99.90;;;;;;4997622;28;20066;-30
2023/05/23 05:38:05;;;;;;;28.88;16.05;;;16.00;99.90;;;;;;5002154;28;20498;-30
2023/05/23 05:40:31;;;;;;;28.08;15.90;;;16.10;99.90;;;;;;4996633;28;20069;-30
2023/05/23 05:42:57;;;;;;;28.48;16.05;;;16.30;99.90;;;;;;5000972;28;20736;-31
2023/05/23 05:45:24;;;;;;;29.33;16.27;;;16.40;99.90;;;;;;4998751;28;20042;-31
2023/05/23 05:47:50;;;;;;;28.40;16.23;;;16.60;99.90;;;;;;5019286;28;20022;-30
2023/05/23 05:50:18;;;;;;;31.23;16.80;;;16.60;99.90;;;;;;5008005;28;20379;-30
2023/05/23 05:52:45;;;;;;;29.08;16.90;;;16.60;99.90;;;;;;5006035;28;20408;-30
2023/05/23 05:55:11;;;;;;;28.10;14.93;;;16.50;99.90;;;;;;5004123;28;20048;-30
2023/05/23 05:57:41;;;;;;;32.97;16.52;;;16.60;99.90;;;;;;5005870;28;20034;-30
2023/05/23 06:00:13;;;;;;;32.70;16.75;;;16.70;99.90;;;;;;4997130;28;20391;-30
2023/05/23 06:02:52;;;;;;;32.90;17.80;;;16.60;99.90;;;;;;4998972;28;21577;-30
2023/05/23 06:05:27;;;;;;;32.00;17.98;;;16.80;99.90;;;;;;5002027;28;20493;-30
2023/05/23 06:07:53;;;;;;;34.85;17.33;;;16.80;99.90;;;;;;5000476;28;20038;-30
2023/05/23 06:10:18;;;;;;;31.95;17.40;;;16.70;99.90;;;;;;4996112;28;20033;-30
2023/05/23 06:12:44;;;;;;;34.10;16.90;;;16.60;99.90;;;;;;5000730;28;20034;-30
2023/05/23 06:15:12;;;;;;;35.70;17.73;;;16.80;99.90;;;;;;5002659;28;20034;-30
2023/05/23 06:17:37;;;;;;;27.20;15.00;;;16.80;99.90;;;;;;5003716;28;20840;-31
2023/05/23 06:20:03;;;;;;;32.70;17.08;;;16.70;99.90;;;;;;5000860;28;20031;-30
2023/05/23 06:22:29;;;;;;;27.95;17.05;;;16.80;99.90;;;;;;5001999;28;20038;-30
2023/05/23 06:24:55;;;;;;;29.60;15.57;;;16.80;99.90;;;;;;5000594;28;20045;-31
2023/05/23 06:27:20;;;;;;;31.25;16.05;;;16.60;99.90;;;;;;5000031;28;20025;-30
2023/05/23 06:29:46;;;;;;;33.25;15.63;;;16.70;99.90;;;;;;4998374;28;20475;-31
2023/05/23 06:32:11;;;;;;;33.22;16.55;;;16.70;99.90;;;;;;4999522;28;20038;-31
2023/05/23 06:34:37;;;;;;;27.95;14.35;;;16.80;99.90;;;;;;4994949;28;20488;-31
2023/05/23 06:37:03;;;;;;;36.00;18.48;;;16.80;99.90;;;;;;4998144;28;20870;-31
2023/05/23 06:39:28;;;;;;;31.65;17.80;;;16.80;99.90;;;;;;5003628;28;20019;-31
2023/05/23 06:41:54;;;;;;;29.88;16.67;;;16.90;99.90;;;;;;4996170;28;20037;-31
2023/05/23 06:44:20;;;;;;;31.83;17.95;;;16.90;99.90;;;;;;5003076;28;20109;-31
2023/05/23 06:46:46;;;;;;;32.15;17.98;;;16.90;99.90;;;;;;5000452;28;20583;-31
2023/05/23 06:49:12;;;;;;;36.15;18.80;;;16.90;99.90;;;;;;5001248;28;20108;-31
2023/05/23 06:51:37;;;;;;;31.35;16.42;;;17.00;99.90;;;;;;5002549;28;20218;-31
2023/05/23 06:54:04;;;;;;;26.83;13.30;;;17.10;99.90;;;;;;5003995;28;20030;-31
2023/05/23 06:56:29;;;;;;;34.90;18.98;;;17.00;99.90;;;;;;4998618;28;20034;-31
2023/05/23 06:58:55;;;;;;;32.95;17.58;;;17.10;99.90;;;;;;5001558;28;20026;-31
2023/05/23 07:01:21;;;;;;;30.45;17.05;;;17.10;99.90;;;;;;5005080;28;20065;-31
2023/05/23 07:03:46;;;;;;;33.45;19.10;;;17.10;99.90;;;;;;5002794;28;20047;-30
2023/05/23 07:06:12;;;;;;;31.70;17.55;;;17.20;99.90;;;;;;4999898;28;20837;-30
2023/05/23 07:08:38;;;;;;;28.95;16.98;;;17.30;99.90;;;;;;4999155;28;20045;-31
2023/05/23 07:11:05;;;;;;;31.67;17.90;;;17.40;99.90;;;;;;5002067;28;20114;-32
2023/05/23 07:13:31;;;;;;;36.40;18.30;;;17.30;99.90;;;;;;5000069;28;20512;-30
2023/05/23 07:15:56;;;;;;;31.05;17.30;;;17.30;99.90;;;;;;5004452;28;20113;-31
2023/05/23 07:18:22;;;;;;;30.77;17.15;;;17.30;99.90;;;;;;4998617;28;20467;-30
2023/05/23 07:20:48;;;;;;;30.63;17.55;;;17.30;99.90;;;;;;4997666;28;20411;-30
2023/05/23 07:23:14;;;;;;;31.75;17.25;;;17.30;99.90;;;;;;5000122;28;20038;-31
2023/05/23 07:25:41;;;;;;;31.20;17.58;;;17.40;99.90;;;;;;5001919;28;20033;-31
2023/05/23 07:28:07;;;;;;;25.20;13.80;;;17.50;99.90;;;;;;4999212;28;20124;-30
2023/05/23 07:30:33;;;;;;;27.92;15.65;;;17.40;99.90;;;;;;4997878;28;20033;-31
2023/05/23 07:32:58;;;;;;;25.25;14.68;;;17.40;99.90;;;;;;4997283;28;20053;-30
2023/05/23 07:35:25;;;;;;;24.02;14.40;;;17.40;99.90;;;;;;5000908;28;20033;-30
2023/05/23 07:37:54;;;;;;;30.17;16.17;;;17.50;99.90;;;;;;5003145;28;20025;-30
2023/05/23 07:40:21;;;;;;;26.45;15.07;;;17.60;99.90;;;;;;4998467;28;20496;-30
2023/05/23 07:42:47;;;;;;;24.88;14.95;;;17.70;99.90;;;;;;4993061;28;20058;-30
2023/05/23 07:45:13;;;;;;;29.88;16.15;;;17.80;99.90;;;;;;4997767;28;20104;-30
2023/05/23 07:47:39;;;;;;;30.45;15.77;;;17.80;99.90;;;;;;4994414;28;20041;-30
2023/05/23 07:50:05;;;;;;;25.70;15.23;;;17.70;99.90;;;;;;4999757;28;20475;-30
2023/05/23 07:52:31;;;;;;;27.25;16.77;;;17.70;99.90;;;;;;5000662;28;20038;-31
2023/05/23 07:54:57;;;;;;;29.58;15.82;;;17.70;99.90;;;;;;4999732;28;20018;-31
2023/05/23 07:57:26;;;;;;;26.83;15.23;;;17.70;99.90;;;;;;4998702;28;20042;-30
2023/05/23 07:59:52;;;;;;;23.67;13.75;;;17.60;99.90;;;;;;5007143;28;20037;-31
2023/05/23 08:02:18;;;;;;;31.48;15.13;;;17.60;99.90;;;;;;5001985;28;20077;-30
2023/05/23 08:04:45;;;;;;;32.00;16.08;;;17.50;99.90;;;;;;4996523;28;20068;-31
2023/05/23 08:07:11;;;;;;;25.73;14.82;;;17.60;99.90;;;;;;4998932;28;20707;-33
2023/05/23 08:09:39;;;;;;;26.05;15.40;;;17.60;99.90;;;;;;5000967;28;20075;-31
2023/05/23 08:12:05;;;;;;;24.75;14.73;;;17.60;99.90;;;;;;5001380;28;20037;-30
2023/05/23 08:14:31;;;;;;;24.40;14.48;;;17.80;99.90;;;;;;4999668;28;20043;-30
2023/05/23 08:16:57;;;;;;;28.17;14.75;;;17.80;99.90;;;;;;5000005;28;20029;-30
2023/05/23 08:19:22;;;;;;;19.77;12.38;;;17.80;99.90;;;;;;4996647;28;20119;-31
2023/05/23 08:21:48;;;;;;;26.80;14.88;;;17.80;99.90;;;;;;4996806;28;20021;-30
2023/05/23 08:24:14;;;;;;;23.40;13.95;;;17.80;99.90;;;;;;5001843;28;20535;-31
2023/05/23 08:26:40;;;;;;;21.85;12.27;;;18.00;99.90;;;;;;4995409;28;20034;-30
2023/05/23 08:29:09;;;;;;;23.30;13.88;;;18.10;99.90;;;;;;4996611;28;20108;-30
2023/05/23 08:31:34;;;;;;;;;;;18.20;99.90;;;;;;4995873;28;20036;-30
2023/05/23 08:34:00;;;;;;;23.35;13.13;;;18.20;99.90;;;;;;4995182;28;20008;-31
2023/05/23 08:36:26;;;;;;;23.35;13.30;;;18.20;99.90;;;;;;5003828;28;20113;-31
2023/05/23 08:38:51;;;;;;;20.77;11.82;;;18.20;99.90;;;;;;5000607;28;20050;-30
2023/05/23 08:41:25;;;;;;;21.63;13.30;;;18.10;99.90;;;;;;4998713;28;20026;-30
2023/05/23 08:43:51;;;;;;;20.13;12.77;;;18.00;99.90;;;;;;4996851;28;20479;-30
2023/05/23 08:46:17;;;;;;;22.33;14.13;;;17.90;99.90;;;;;;4993746;28;20063;-29
2023/05/23 08:48:48;;;;;;;23.48;13.98;;;17.90;99.90;;;;;;5002929;28;20022;-30
2023/05/23 08:51:14;;;;;;;21.33;11.50;;;17.90;99.90;;;;;;4999747;28;20782;-31
2023/05/23 08:53:45;;;;;;;24.38;14.32;;;17.80;99.90;;;;;;5002239;28;20028;-30
2023/05/23 08:56:11;;;;;;;21.10;13.30;;;17.80;99.90;;;;;;5005952;28;20033;-31
2023/05/23 08:58:40;;;;;;;23.13;13.98;;;17.70;99.90;;;;;;5001993;28;20037;-30
2023/05/23 09:01:08;;;;;;;24.58;13.98;;;17.70;99.90;;;;;;5002113;28;20146;-30
2023/05/23 09:03:36;;;;;;;27.25;14.23;;;17.60;99.90;;;;;;4999264;28;20156;-30
2023/05/23 09:06:03;;;;;;;21.30;13.38;;;17.60;99.90;;;;;;5002325;28;20062;-45
2023/05/23 09:08:29;;;;;;;23.75;14.60;;;17.70;99.90;;;;;;4995535;28;20041;-43
2023/05/23 09:10:55;;;;;;;24.17;14.38;;;17.60;99.90;;;;;;5004849;28;20411;-43
2023/05/23 09:13:21;;;;;;;25.20;14.43;;;17.60;99.90;;;;;;4998676;28;20679;-43
2023/05/23 09:15:58;;;;;;;23.77;13.75;;;17.60;99.90;;;;;;5003397;28;20038;-43
2023/05/23 09:18:44;;;;;;;;;;;17.80;99.90;;;;;;5000877;28;20030;-43
2023/05/23 09:21:11;;;;;;;24.77;13.75;;;17.90;99.90;;;;;;4998402;28;19945;-43
2023/05/23 09:23:39;;;;;;;25.60;14.27;;;18.00;99.90;;;;;;5000464;28;20027;-43
2023/05/23 09:26:06;;;;;;;23.23;12.43;;;18.10;99.90;;;;;;5003743;28;20387;-43
2023/05/23 09:28:32;;;;;;;23.97;14.00;;;18.20;99.90;;;;;;4997495;28;20030;-43
2023/05/23 09:31:03;;;;;;;21.77;13.23;;;18.20;99.90;;;;;;5002511;28;20483;-43
2023/05/23 09:33:49;;;;;;;21.95;13.60;;;18.50;99.90;;;;;;4998555;28;20033;-43
2023/05/23 09:36:16;;;;;;;22.27;13.50;;;18.60;99.90;;;;;;5003253;28;20038;-43
2023/05/23 09:38:44;;;;;;;21.45;13.35;;;18.80;99.90;;;;;;4999242;28;20124;-43
2023/05/23 09:41:13;;;;;;;20.85;13.40;;;18.90;99.90;;;;;;5000652;28;20038;-43
2023/05/23 09:43:48;;;;;;;21.80;13.63;;;19.40;99.90;;;;;;5005019;28;20108;-43
2023/05/23 09:46:14;;;;;;;23.08;13.45;;;19.50;99.90;;;;;;4998444;28;20058;-43
2023/05/23 09:48:45;;;;;;;16.35;10.02;;;19.40;99.90;;;;;;5007582;28;20123;-41
2023/05/23 09:51:10;;;;;;;20.38;12.07;;;19.30;99.90;;;;;;5006887;28;20026;-41
2023/05/23 09:53:36;;;;;;;21.33;13.73;;;19.20;99.90;;;;;;4998370;28;20041;-41
2023/05/23 09:56:03;;;;;;;22.85;14.02;;;19.30;99.90;;;;;;5001809;28;20026;-41
2023/05/23 09:58:29;;;;;;;19.95;13.85;;;19.10;99.90;;;;;;4996278;28;20105;-41
2023/05/23 10:00:56;;;;;;;17.92;11.52;;;19.20;99.90;;;;;;5006286;28;20041;-41
2023/05/23 10:03:30;;;;;;;19.58;12.77;;;19.60;99.90;;;;;;5000191;28;20046;-41
2023/05/23 10:06:00;;;;;;;19.70;11.75;;;19.80;99.90;;;;;;5000700;28;20038;-41
2023/05/23 10:08:32;;;;;;;15.38;10.20;;;19.90;99.90;;;;;;4996212;28;20026;-41
2023/05/23 10:11:18;;;;;;;16.08;10.23;;;19.80;99.90;;;;;;5003593;28;20018;-41
2023/05/23 10:13:45;;;;;;;18.40;11.25;;;19.90;99.90;;;;;;4993331;28;20673;-41
2023/05/23 10:16:30;;;;;;;16.25;10.63;;;20.20;99.90;;;;;;5003364;28;20406;-41
2023/05/23 10:18:59;;;;;;;17.95;11.77;;;20.40;99.90;;;;;;4995311;28;20030;-43
2023/05/23 10:21:43;;;;;;;16.90;10.98;;;20.10;99.90;;;;;;4997122;28;20040;-44
2023/05/23 10:24:10;;;;;;;18.38;12.40;;;20.20;99.90;;;;;;5005675;28;20083;-43
2023/05/23 10:26:36;;;;;;;18.48;12.25;;;20.10;99.90;;;;;;5001399;28;20030;-43
2023/05/23 10:29:02;;;;;;;17.83;11.35;;;20.00;99.90;;;;;;4997517;28;20037;-43
2023/05/23 10:31:28;;;;;;;19.45;12.05;;;19.90;99.90;;;;;;4999677;28;20034;-43
2023/05/23 10:34:17;;;;;;;14.23;9.13;;;20.20;99.90;;;;;;4994408;28;20782;-43
2023/05/23 10:36:54;;;;;;;16.20;10.55;;;20.60;99.90;;;;;;4997827;28;20168;-43
2023/05/23 10:39:37;;;;;;;19.50;12.18;;;20.70;99.90;;;;;;5000000;28;20550;-43
2023/05/23 10:42:16;;;;;;;12.68;8.57;;;20.70;99.90;;;;;;4996471;28;20107;-43
2023/05/23 10:44:41;;;;;;;15.40;10.52;;;20.70;99.90;;;;;;5000945;28;20026;-43
2023/05/23 10:47:07;;;;;;;16.13;10.38;;;20.60;99.90;;;;;;5001234;28;20526;-43
2023/05/23 10:49:50;;;;;;;16.08;10.27;;;20.70;99.90;;;;;;5004787;28;20030;-43
2023/05/23 10:52:16;;;;;;;14.10;10.27;;;20.80;99.90;;;;;;4999136;28;20026;-43
2023/05/23 10:54:45;;;;;;;15.20;10.93;;;20.80;99.90;;;;;;5000288;28;20025;-43
2023/05/23 10:57:15;;;;;;;14.77;9.85;;;21.00;99.90;;;;;;4996061;28;20478;-43
2023/05/23 10:59:41;;;;;;;13.02;9.75;;;21.50;99.90;;;;;;5002453;28;20607;-43
2023/05/23 11:02:13;;;;;;;14.40;9.88;;;22.20;99.90;;;;;;5001605;28;20053;-43
2023/05/23 11:04:39;;;;;;;12.70;9.68;;;22.30;99.90;;;;;;5000560;28;20076;-43
2023/05/23 11:07:05;;;;;;;14.50;11.02;;;21.80;99.90;;;;;;4999974;28;20026;-43
2023/05/23 11:09:30;;;;;;;12.48;9.70;;;21.50;99.90;;;;;;4999995;28;20030;-43
2023/05/23 11:12:03;;;;;;;13.40;9.75;;;21.10;99.90;;;;;;5002486;28;20061;-43
2023/05/23 11:14:36;;;;;;;13.48;9.65;;;21.10;99.90;;;;;;4999017;28;20554;-43
2023/05/23 11:17:11;;;;;;;12.77;9.70;;;21.00;99.90;;;;;;4998668;28;20066;-43
2023/05/23 11:19:37;;;;;;;16.25;10.25;;;20.60;99.90;;;;;;4994461;28;20029;-43
2023/05/23 11:22:07;;;;;;;14.48;10.77;;;20.00;99.90;;;;;;4997958;28;20399;-43
2023/05/23 11:24:52;;;;;;;14.52;10.38;;;20.00;99.90;;;;;;4997970;28;20093;-43
2023/05/23 11:27:40;;;;;;;14.07;11.25;;;20.10;99.90;;;;;;4999610;28;20124;-43
2023/05/23 11:30:09;;;;;;;14.93;10.98;;;20.10;99.90;;;;;;5000762;28;20387;-43
2023/05/23 11:32:35;;;;;;;17.35;11.48;;;20.00;99.90;;;;;;5007731;28;20038;-43
2023/05/23 11:35:06;;;;;;;15.05;11.00;;;20.10;99.90;;;;;;5002515;28;20026;-43
2023/05/23 11:37:32;;;;;;;15.27;10.70;;;20.40;99.90;;;;;;4998564;28;20490;-43
2023/05/23 11:40:00;;;;;;;14.85;10.20;;;21.00;99.90;;;;;;4999674;28;20026;-43
2023/05/23 11:42:26;;;;;;;;;;;21.10;99.90;;;;;;5002503;28;20538;-43
2023/05/23 11:44:52;;;;;;;14.10;9.75;;;21.00;99.90;;;;;;4995587;28;20016;-43
2023/05/23 11:47:18;;;;;;;16.80;10.93;;;20.90;99.90;;;;;;4997236;28;20029;-43
2023/05/23 11:49:48;;;;;;;14.35;10.45;;;20.70;99.90;;;;;;4998575;28;20034;-43
2023/05/23 11:52:14;;;;;;;15.65;11.10;;;20.60;99.90;;;;;;4995985;28;20170;-43
2023/05/23 11:54:43;;;;;;;13.98;9.93;;;20.40;99.90;;;;;;4996765;28;20058;-43
2023/05/23 11:57:10;;;;;;;13.20;10.20;;;20.40;99.90;;;;;;4999543;28;20061;-43
2023/05/23 11:59:36;;;;;;;16.58;10.73;;;20.40;99.90;;;;;;5004041;28;20041;-43
2023/05/23 12:02:04;;;;;;;13.68;10.20;;;20.70;99.90;;;;;;4998838;28;20046;-43
2023/05/23 12:04:30;;;;;;;;;;;21.50;99.90;;;;;;5001229;28;21732;-43
2023/05/23 12:06:55;;;;;;;14.00;10.10;;;22.10;99.90;;;;;;4998261;28;20000;-43
2023/05/23 12:09:21;;;;;;;14.45;10.70;;;22.00;99.90;;;;;;4996706;28;20022;-43
2023/05/23 12:11:48;;;;;;;14.98;10.23;;;21.70;99.90;;;;;;5001007;28;20663;-43
2023/05/23 12:14:15;;;;;;;15.50;11.48;;;21.40;99.90;;;;;;4997000;28;20038;-43
2023/05/23 12:16:45;;;;;;;16.67;11.25;;;20.70;99.90;;;;;;5003776;28;20022;-43
2023/05/23 12:19:11;;;;;;;13.05;10.00;;;20.40;99.90;;;;;;4995298;28;20081;-43
2023/05/23 12:21:55;;;;;;;13.95;10.57;;;20.50;99.90;;;;;;4997321;28;20488;-43
2023/05/23 12:24:22;;;;;;;15.77;10.93;;;20.80;99.90;;;;;;4996475;28;20113;-43
2023/05/23 12:26:58;;;;;;;15.00;10.88;;;20.80;99.90;;;;;;4995769;28;20046;-43
2023/05/23 12:29:34;;;;;;;14.43;10.32;;;20.60;99.90;;;;;;4995077;28;20048;-43
2023/05/23 12:32:05;;;;;;;15.13;10.48;;;20.70;99.90;;;;;;4996351;28;20031;-43
2023/05/23 12:34:31;;;;;;;17.02;11.52;;;20.70;99.90;;;;;;4994497;28;20044;-43
2023/05/23 12:36:58;;;;;;;15.43;10.98;;;20.60;99.90;;;;;;5000239;28;20097;-43
2023/05/23 12:39:28;;;;;;;15.10;10.55;;;20.50;99.90;;;;;;4998847;28;20089;-43
2023/05/23 12:41:55;;;;;;;13.77;10.32;;;20.60;99.90;;;;;;4998222;28;20039;-43